createdAt,value
2022-10-13T00:07:31.936Z,34
2022-10-13T00:36:40.953Z,30
2022-10-13T01:05:58.667Z,29
2022-10-13T01:35:15.142Z,28
2022-10-13T02:04:34.465Z,30
2022-10-13T02:33:49.851Z,28
2022-10-13T03:03:01.619Z,28
2022-10-13T03:32:10.838Z,31
2022-10-13T04:01:27.098Z,33
2022-10-13T04:30:33.411Z,31
2022-10-13T04:59:36.488Z,33
2022-10-13T05:28:59.741Z,32
2022-10-13T05:58:18.164Z,32
2022-10-13T06:27:39.430Z,31
2022-10-13T06:56:52.955Z,31
2022-10-13T07:26:12.860Z,31
2022-10-13T07:55:27.986Z,36
2022-10-13T08:24:53.900Z,31
2022-10-13T08:54:17.721Z,31
2022-10-13T09:23:43.690Z,28
2022-10-13T09:53:08.468Z,31
2022-10-13T10:22:34.013Z,40
2022-10-13T10:51:52.830Z,38
2022-10-13T11:21:17.747Z,34
2022-10-13T11:50:44.454Z,26
2022-10-13T12:20:03.613Z,25
2022-10-13T12:50:26.949Z,26
2022-10-13T13:19:15.199Z,26
2022-10-13T13:48:35.826Z,25
2022-10-13T14:17:42.012Z,22
2022-10-13T14:46:57.926Z,22
2022-10-13T15:16:06.108Z,23
2022-10-13T15:45:13.706Z,23
2022-10-13T16:14:26.462Z,23
2022-10-13T16:43:36.764Z,26
2022-10-13T17:12:55.065Z,32
2022-10-13T17:42:13.784Z,28
2022-10-13T18:11:22.485Z,26
2022-10-13T18:40:43.408Z,31
2022-10-13T19:10:01.425Z,30
2022-10-13T19:39:21.007Z,29
2022-10-13T20:08:30.953Z,28
2022-10-13T20:37:38.860Z,28
2022-10-13T21:06:45.338Z,26
2022-10-13T21:35:53.706Z,27
2022-10-13T22:05:15.192Z,28
2022-10-13T22:34:37.540Z,26
2022-10-13T23:03:59.358Z,28
2022-10-13T23:33:16.104Z,26
